createdAt,value
2023-01-08T00:02:15.994Z,100518.97
2023-01-08T00:05:17.454Z,100506.13
2023-01-08T00:08:18.807Z,100520.63
2023-01-08T00:11:20.160Z,100513.59
2023-01-08T00:14:21.578Z,100513.53
2023-01-08T00:17:22.929Z,100520.28
2023-01-08T00:20:24.462Z,100522.69
2023-01-08T00:23:26.080Z,100508.16
2023-01-08T00:26:27.449Z,100502.97
2023-01-08T00:29:29.366Z,100497.81
2023-01-08T00:32:30.718Z,100493.41
2023-01-08T00:35:32.053Z,100489.03
2023-01-08T00:38:33.514Z,100481.31
2023-01-08T00:41:34.859Z,100467.69
2023-01-08T00:44:36.267Z,100472.81
2023-01-08T00:47:37.612Z,100462.78
2023-01-08T00:50:38.990Z,100467.16
2023-01-08T00:53:40.335Z,100477.34
2023-01-08T00:56:41.732Z,100473.13
2023-01-08T00:59:43.080Z,100478.13
2023-01-08T01:02:45.306Z,100473.88
2023-01-08T01:05:46.706Z,100477.97
2023-01-08T01:08:48.054Z,100482.97
2023-01-08T01:11:49.427Z,100477.91
2023-01-08T01:14:51.049Z,100479.56
2023-01-08T01:17:52.441Z,100471.63
2023-01-08T01:20:54.436Z,100464.06
2023-01-08T01:23:58.231Z,100468.38
2023-01-08T01:26:59.607Z,100464.81
2023-01-08T01:30:00.945Z,100461.31
2023-01-08T01:33:02.324Z,100459.44
2023-01-08T01:36:04.024Z,100448.09
2023-01-08T01:39:05.553Z,100441.88
2023-01-08T01:42:06.988Z,100448.75
2023-01-08T01:45:24.384Z,100437.47
2023-01-08T01:48:25.969Z,100433.00
2023-01-08T01:51:32.373Z,100435.34
2023-01-08T01:54:36.001Z,100447.16
2023-01-08T01:57:38.423Z,100440.34
2023-01-08T02:00:41.110Z,100441.44
2023-01-08T02:03:42.519Z,100424.53
2023-01-08T02:06:54.965Z,100439.91
2023-01-08T02:10:19.269Z,100436.81
2023-01-08T02:13:26.288Z,100436.88
2023-01-08T02:16:44.444Z,100432.41
2023-01-08T02:19:57.887Z,100428.03
2023-01-08T02:23:28.699Z,100429.16
2023-01-08T02:26:32.224Z,100430.88
2023-01-08T02:29:34.600Z,100424.16
2023-01-08T02:32:42.106Z,100419.94
2023-01-08T02:35:54.329Z,100412.75
2023-01-08T02:39:01.546Z,100410.47
2023-01-08T02:42:11.193Z,100412.66
2023-01-08T02:45:21.575Z,100401.91
2023-01-08T02:48:42.226Z,100410.09
2023-01-08T02:51:49.940Z,100407.13
2023-01-08T02:54:52.758Z,100401.53
2023-01-08T02:57:54.623Z,100413.75
2023-01-08T03:00:56.872Z,100416.41
2023-01-08T03:04:04.060Z,100420.03
2023-01-08T03:07:05.567Z,100429.69
2023-01-08T03:10:08.109Z,100428.88
2023-01-08T03:13:18.302Z,100416.09
2023-01-08T03:16:37.663Z,100409.44
2023-01-08T03:19:48.412Z,100400.66
2023-01-08T03:22:54.653Z,100423.56
2023-01-08T03:25:58.787Z,100429.41
2023-01-08T03:29:02.701Z,100405.16
2023-01-08T03:32:09.548Z,100408.53
2023-01-08T03:35:13.814Z,100412.72
2023-01-08T03:38:20.684Z,100403.88
2023-01-08T03:41:24.428Z,100391.72
2023-01-08T03:44:26.098Z,100389.81
2023-01-08T03:47:29.928Z,100404.25
2023-01-08T03:50:31.983Z,100413.56
2023-01-08T03:53:33.374Z,100414.19
2023-01-08T03:56:34.760Z,100410.69
2023-01-08T03:59:36.136Z,100419.03
2023-01-08T04:02:37.658Z,100405.19
2023-01-08T04:05:39.025Z,100400.13
2023-01-08T04:08:40.382Z,100401.91
2023-01-08T04:11:41.750Z,100394.19
2023-01-08T04:14:43.122Z,100386.41
2023-01-08T04:17:44.509Z,100386.28
2023-01-08T04:20:47.275Z,100382.47
2023-01-08T04:23:48.646Z,100379.22
2023-01-08T04:26:50.070Z,100378.31
2023-01-08T04:29:51.507Z,100386.84
2023-01-08T04:32:52.855Z,100379.13
2023-01-08T04:35:54.194Z,100385.88
2023-01-08T04:38:55.851Z,100380.72
2023-01-08T04:41:57.217Z,100372.19
2023-01-08T04:44:58.549Z,100358.50
2023-01-08T04:48:00.146Z,100368.03
2023-01-08T04:51:02.986Z,100367.06
2023-01-08T04:54:04.508Z,100351.63
2023-01-08T04:57:05.961Z,100350.09
2023-01-08T05:00:08.247Z,100349.41
2023-01-08T05:03:09.787Z,100347.91
2023-01-08T05:06:11.321Z,100347.00
2023-01-08T05:09:12.686Z,100356.56
2023-01-08T05:12:14.045Z,100347.97
2023-01-08T05:15:15.514Z,100345.50
2023-01-08T05:18:17.488Z,100350.63
2023-01-08T05:21:18.872Z,100336.25
2023-01-08T05:24:20.220Z,100333.69
2023-01-08T05:27:21.579Z,100343.31
2023-01-08T05:30:23.061Z,100344.38
2023-01-08T05:33:25.339Z,100344.44
2023-01-08T05:36:26.948Z,100340.22
2023-01-08T05:39:28.364Z,100338.69
2023-01-08T05:42:29.723Z,100336.25
2023-01-08T05:45:32.213Z,100335.50
2023-01-08T05:48:35.235Z,100337.34
2023-01-08T05:51:36.624Z,100348.59
2023-01-08T05:54:37.989Z,100343.53
2023-01-08T05:57:39.359Z,100339.06
2023-01-08T06:00:40.712Z,100338.00
2023-01-08T06:03:42.222Z,100333.63
2023-01-08T06:06:43.590Z,100335.28
2023-01-08T06:09:44.965Z,100342.00
2023-01-08T06:12:46.430Z,100336.06
2023-01-08T06:15:47.819Z,100341.13
2023-01-08T06:18:49.292Z,100325.59
2023-01-08T06:21:51.034Z,100333.25
2023-01-08T06:24:52.391Z,100328.19
2023-01-08T06:27:53.970Z,100324.72
2023-01-08T06:30:58.187Z,100326.28
2023-01-08T06:33:59.595Z,100326.88
2023-01-08T06:37:00.997Z,100327.81
2023-01-08T06:40:02.493Z,100321.81
2023-01-08T06:43:05.160Z,100320.19
2023-01-08T06:46:08.191Z,100320.31
2023-01-08T06:49:09.726Z,100322.13
2023-01-08T06:52:11.296Z,100319.56
2023-01-08T06:55:12.646Z,100314.50
2023-01-08T06:58:14.124Z,100316.22
2023-01-08T07:01:16.733Z,100322.13
2023-01-08T07:04:18.601Z,100315.31
2023-01-08T07:07:19.964Z,100311.94
2023-01-08T07:10:21.433Z,100313.66
2023-01-08T07:13:22.783Z,100308.50
2023-01-08T07:16:24.190Z,100307.59
2023-01-08T07:19:25.588Z,100313.56
2023-01-08T07:22:27.513Z,100305.81
2023-01-08T07:25:28.942Z,100299.00
2023-01-08T07:28:30.804Z,100300.59
2023-01-08T07:31:32.324Z,100299.66
2023-01-08T07:34:33.814Z,100308.88
2023-01-08T07:37:39.725Z,100308.81
2023-01-08T07:40:41.058Z,100303.72
2023-01-08T07:43:42.613Z,100304.88
2023-01-08T07:46:44.290Z,100299.16
2023-01-08T07:49:45.715Z,100304.50
2023-01-08T07:52:47.055Z,100305.41
2023-01-08T07:55:48.419Z,100291.81
2023-01-08T07:58:49.738Z,100295.28
2023-01-08T08:01:51.163Z,100290.06
2023-01-08T08:04:52.593Z,100284.84
2023-01-08T08:07:53.957Z,100279.66
2023-01-08T08:10:55.362Z,100283.78
2023-01-08T08:13:56.879Z,100286.22
2023-01-08T08:16:58.230Z,100286.97
2023-01-08T08:19:59.606Z,100280.00
2023-01-08T08:23:09.277Z,100283.25
2023-01-08T08:26:10.627Z,100284.00
2023-01-08T08:29:12.043Z,100285.59
2023-01-08T08:32:13.408Z,100288.91
2023-01-08T08:35:14.909Z,100307.69
2023-01-08T08:38:16.692Z,100304.34
2023-01-08T08:41:18.054Z,100292.31
2023-01-08T08:44:19.416Z,100289.00
2023-01-08T08:47:20.869Z,100288.25
2023-01-08T08:50:23.044Z,100289.06
2023-01-08T08:53:26.363Z,100284.66
2023-01-08T08:56:28.933Z,100293.06
2023-01-08T08:59:30.347Z,100294.75
2023-01-08T09:02:31.986Z,100293.81
2023-01-08T09:05:36.764Z,100286.03
2023-01-08T09:08:38.109Z,100285.13
2023-01-08T09:11:39.521Z,100283.41
2023-01-08T09:14:40.848Z,100286.63
2023-01-08T09:17:42.199Z,100282.31
2023-01-08T09:20:43.712Z,100299.91
2023-01-08T09:23:45.067Z,100305.59
2023-01-08T09:26:46.420Z,100300.28
2023-01-08T09:29:47.756Z,100290.84
2023-01-08T09:32:49.096Z,100285.53
2023-01-08T09:35:50.481Z,100282.88
2023-01-08T09:38:51.907Z,100274.00
2023-01-08T09:41:53.840Z,100262.53
2023-01-08T09:44:58.191Z,100275.91
2023-01-08T09:48:04.293Z,100273.78
2023-01-08T09:51:12.429Z,100269.03
2023-01-08T09:54:16.841Z,100268.69
2023-01-08T09:57:21.060Z,100274.34
2023-01-08T10:00:27.965Z,100271.69
2023-01-08T10:03:38.596Z,100265.53
2023-01-08T10:06:58.814Z,100268.28
2023-01-08T10:10:00.255Z,100269.19
2023-01-08T10:13:01.781Z,100268.47
2023-01-08T10:16:08.908Z,100266.72
2023-01-08T10:19:10.300Z,100262.56
2023-01-08T10:22:14.884Z,100257.31
2023-01-08T10:25:19.216Z,100240.72
2023-01-08T10:28:26.415Z,100238.47
2023-01-08T10:31:27.817Z,100233.97
2023-01-08T10:34:42.611Z,100231.47
2023-01-08T10:37:44.541Z,100226.16
2023-01-08T10:40:49.557Z,100232.28
2023-01-08T10:43:58.674Z,100244.28
2023-01-08T10:47:01.058Z,100238.38
2023-01-08T10:50:05.348Z,100244.53
2023-01-08T10:53:23.652Z,100245.44
2023-01-08T10:56:29.492Z,100251.34
2023-01-08T10:59:30.949Z,100254.16
2023-01-08T11:02:39.631Z,100253.06
2023-01-08T11:05:41.354Z,100251.31
2023-01-08T11:08:51.595Z,100254.56
2023-01-08T11:11:53.162Z,100255.47
2023-01-08T11:14:54.598Z,100240.91
2023-01-08T11:18:04.995Z,100234.88
2023-01-08T11:21:09.472Z,100228.72
2023-01-08T11:24:24.710Z,100221.06
2023-01-08T11:27:34.627Z,100221.22
2023-01-08T11:30:38.515Z,100222.97
2023-01-08T11:33:39.906Z,100221.22
2023-01-08T11:36:49.689Z,100217.72
2023-01-08T11:39:53.065Z,100221.06
2023-01-08T11:43:11.171Z,100209.81
2023-01-08T11:46:27.863Z,100204.47
2023-01-08T11:49:56.535Z,100198.22
2023-01-08T11:53:10.105Z,100187.28
2023-01-08T11:56:20.784Z,100186.63
2023-01-08T11:59:36.194Z,100177.91
2023-01-08T12:02:50.463Z,100173.97
2023-01-08T12:06:20.320Z,100155.75
2023-01-08T12:09:58.640Z,100155.13
2023-01-08T12:13:34.384Z,100147.47
2023-01-08T12:16:38.698Z,100153.06
2023-01-08T12:20:05.001Z,100137.31
2023-01-08T12:23:30.302Z,100148.38
2023-01-08T12:26:34.573Z,100137.00
2023-01-08T12:30:05.246Z,100132.81
2023-01-08T12:33:25.245Z,100140.63
2023-01-08T12:36:49.215Z,100134.28
2023-01-08T12:39:57.991Z,100129.47
2023-01-08T12:43:04.499Z,100135.75
2023-01-08T12:46:11.914Z,100122.47
2023-01-08T12:49:21.174Z,100135.00
2023-01-08T12:52:29.622Z,100130.75
2023-01-08T12:55:39.770Z,100122.56
2023-01-08T12:59:01.322Z,100120.63
2023-01-08T13:02:18.755Z,100117.69
2023-01-08T13:05:20.119Z,100113.22
2023-01-08T13:08:51.903Z,100119.69
2023-01-08T13:11:56.161Z,100107.63
2023-01-08T13:14:57.658Z,100106.91
2023-01-08T13:18:14.808Z,100098.72
2023-01-08T13:21:16.240Z,100086.22
2023-01-08T13:24:34.147Z,100082.97
2023-01-08T13:27:35.540Z,100081.50
2023-01-08T13:30:43.594Z,100081.81
2023-01-08T13:33:45.196Z,100074.06
2023-01-08T13:36:57.011Z,100076.75
2023-01-08T13:39:58.351Z,100072.03
2023-01-08T13:43:00.526Z,100072.03
2023-01-08T13:46:01.860Z,100063.75
2023-01-08T13:49:06.876Z,100061.38
2023-01-08T13:52:30.363Z,100062.56
2023-01-08T13:55:35.107Z,100060.09
2023-01-08T13:58:44.229Z,100061.91
2023-01-08T14:01:53.164Z,100063.97
2023-01-08T14:04:55.188Z,100058.25
2023-01-08T14:07:57.428Z,100058.50
2023-01-08T14:10:59.217Z,100061.38
2023-01-08T14:14:01.232Z,100056.41
2023-01-08T14:17:02.580Z,100058.41
2023-01-08T14:20:10.575Z,100057.91
2023-01-08T14:23:18.200Z,100053.03
2023-01-08T14:26:35.832Z,100052.31
2023-01-08T14:29:37.231Z,100044.03
2023-01-08T14:32:43.334Z,100046.84
2023-01-08T14:35:45.095Z,100038.84
2023-01-08T14:38:46.718Z,100039.13
2023-01-08T14:41:49.507Z,100042.69
2023-01-08T14:45:07.713Z,100045.16
2023-01-08T14:48:12.616Z,100044.50
2023-01-08T14:51:20.507Z,100038.13
2023-01-08T14:54:28.933Z,100038.56
2023-01-08T14:57:30.688Z,100054.44
2023-01-08T15:00:32.119Z,100053.19
2023-01-08T15:03:41.557Z,100043.16
2023-01-08T15:06:43.326Z,100039.38
2023-01-08T15:09:56.041Z,100037.31
2023-01-08T15:12:58.033Z,100037.88
2023-01-08T15:16:06.485Z,100031.25
2023-01-08T15:19:18.670Z,100024.78
2023-01-08T15:22:23.920Z,100027.63
2023-01-08T15:25:30.032Z,100027.94
2023-01-08T15:28:31.573Z,100024.94
2023-01-08T15:31:45.983Z,100023.97
2023-01-08T15:34:47.376Z,100027.91
2023-01-08T15:37:48.732Z,100019.94
2023-01-08T15:40:51.271Z,100029.59
2023-01-08T15:43:52.638Z,100013.75
2023-01-08T15:46:54.183Z,100024.13
2023-01-08T15:49:55.541Z,100021.81
2023-01-08T15:52:56.892Z,100021.19
2023-01-08T15:55:58.246Z,100021.19
2023-01-08T15:58:59.626Z,100017.81
2023-01-08T16:02:01.090Z,100017.03
2023-01-08T16:05:02.462Z,100022.34
2023-01-08T16:08:04.858Z,100018.03
2023-01-08T16:11:06.579Z,100018.09
2023-01-08T16:14:07.923Z,100010.09
2023-01-08T16:17:09.266Z,100007.22
2023-01-08T16:20:11.926Z,100016.59
2023-01-08T16:23:13.276Z,100007.22
2023-01-08T16:26:15.815Z,100000.34
2023-01-08T16:29:17.389Z,99997.84
2023-01-08T16:32:18.770Z,99997.03
2023-01-08T16:35:21.464Z,99995.44
2023-01-08T16:38:22.829Z,99984.66
2023-01-08T16:41:24.364Z,99977.88
2023-01-08T16:44:27.153Z,99983.84
2023-01-08T16:47:29.346Z,99979.47
2023-01-08T16:50:32.257Z,99981.94
2023-01-08T16:53:33.955Z,99974.97
2023-01-08T16:56:35.341Z,99964.53
2023-01-08T16:59:36.725Z,99966.13
2023-01-08T17:02:38.109Z,99972.75
2023-01-08T17:05:39.458Z,99971.78
2023-01-08T17:08:42.092Z,99968.22
2023-01-08T17:11:43.467Z,99972.28
2023-01-08T17:14:46.179Z,99970.53
2023-01-08T17:17:47.567Z,99968.94
2023-01-08T17:20:55.188Z,99978.25
2023-01-08T17:23:56.620Z,99970.78
2023-01-08T17:26:58.088Z,99974.69
2023-01-08T17:29:59.522Z,99978.44
2023-01-08T17:33:00.893Z,99988.88
2023-01-08T17:36:09.881Z,99975.06
2023-01-08T17:39:11.872Z,99973.41
2023-01-08T17:42:13.472Z,99963.22
2023-01-08T17:45:14.832Z,99958.84
2023-01-08T17:48:16.202Z,99946.09
2023-01-08T17:51:17.553Z,99951.06
2023-01-08T17:54:18.933Z,99953.72
2023-01-08T17:57:21.222Z,99954.59
2023-01-08T18:00:23.113Z,99960.00
2023-01-08T18:03:24.893Z,99951.34
2023-01-08T18:06:26.405Z,99954.16
2023-01-08T18:09:27.761Z,99950.19
2023-01-08T18:12:29.134Z,99949.50
2023-01-08T18:15:30.491Z,99961.75
2023-01-08T18:18:32.754Z,99957.75
2023-01-08T18:21:34.203Z,99964.00
2023-01-08T18:24:35.658Z,99964.22
2023-01-08T18:27:36.997Z,99969.53
2023-01-08T18:30:38.327Z,99963.19
2023-01-08T18:33:40.610Z,99964.41
2023-01-08T18:36:42.177Z,99958.88
2023-01-08T18:39:44.191Z,99958.34
2023-01-08T18:42:47.430Z,99962.28
2023-01-08T18:45:48.785Z,99965.13
2023-01-08T18:48:52.711Z,99959.63
2023-01-08T18:51:54.090Z,99965.13
2023-01-08T18:54:55.461Z,99964.56
2023-01-08T18:57:56.846Z,99972.53
2023-01-08T19:01:04.631Z,99968.59
2023-01-08T19:04:06.063Z,99967.94
2023-01-08T19:07:07.402Z,99957.69
2023-01-08T19:10:10.837Z,99952.56
2023-01-08T19:13:12.228Z,99951.03
2023-01-08T19:16:13.898Z,99951.16
2023-01-08T19:19:15.337Z,99948.97
2023-01-08T19:22:16.756Z,99945.03
2023-01-08T19:25:18.579Z,99945.31
2023-01-08T19:28:20.228Z,99944.75
2023-01-08T19:31:21.615Z,99944.97
2023-01-08T19:34:22.973Z,99947.66
2023-01-08T19:37:24.338Z,99938.41
2023-01-08T19:40:25.680Z,99946.97
2023-01-08T19:43:27.089Z,99946.41
2023-01-08T19:46:28.988Z,99943.34
2023-01-08T19:49:30.325Z,99939.47
2023-01-08T19:52:31.706Z,99932.97
2023-01-08T19:55:35.229Z,99934.06
2023-01-08T19:58:36.930Z,99927.59
2023-01-08T20:01:38.286Z,99927.09
2023-01-08T20:04:39.676Z,99911.22
2023-01-08T20:07:41.028Z,99911.53
2023-01-08T20:10:42.386Z,99902.25
2023-01-08T20:13:44.238Z,99904.09
2023-01-08T20:16:45.600Z,99911.97
2023-01-08T20:19:49.434Z,99906.28
2023-01-08T20:22:51.538Z,99906.34
2023-01-08T20:25:52.873Z,99905.59
2023-01-08T20:28:56.019Z,99896.25
2023-01-08T20:31:57.376Z,99901.50
2023-01-08T20:34:58.773Z,99895.44
2023-01-08T20:38:00.214Z,99900.34
2023-01-08T20:41:01.874Z,99897.59
2023-01-08T20:44:04.495Z,99892.31
2023-01-08T20:47:05.840Z,99888.91
2023-01-08T20:50:19.191Z,99887.25
2023-01-08T20:53:21.752Z,99881.56
2023-01-08T20:56:23.323Z,99880.84
2023-01-08T20:59:25.546Z,99882.66
2023-01-08T21:02:26.924Z,99881.81
2023-01-08T21:05:28.304Z,99878.44
2023-01-08T21:08:29.658Z,99878.06
2023-01-08T21:11:31.007Z,99876.63
2023-01-08T21:14:32.349Z,99871.91
2023-01-08T21:17:33.792Z,99871.47
2023-01-08T21:20:35.158Z,99872.47
2023-01-08T21:23:36.584Z,99869.78
2023-01-08T21:26:38.000Z,99870.44
2023-01-08T21:29:39.364Z,99864.38
2023-01-08T21:32:40.733Z,99856.59
2023-01-08T21:35:42.115Z,99842.78
2023-01-08T21:38:43.778Z,99841.84
2023-01-08T21:41:45.141Z,99843.47
2023-01-08T21:44:46.581Z,99836.59
2023-01-08T21:47:47.964Z,99832.13
2023-01-08T21:50:49.327Z,99815.06
2023-01-08T21:53:50.671Z,99813.25
2023-01-08T21:56:52.077Z,99809.47
2023-01-08T21:59:53.776Z,99800.56
2023-01-08T22:02:55.183Z,99794.28
2023-01-08T22:06:01.724Z,99796.78
2023-01-08T22:09:03.427Z,99790.84
2023-01-08T22:12:05.024Z,99792.44
2023-01-08T22:15:06.984Z,99789.75
2023-01-08T22:18:08.371Z,99788.91
2023-01-08T22:21:12.440Z,99777.09
2023-01-08T22:24:13.798Z,99773.09
2023-01-08T22:27:15.161Z,99751.19
2023-01-08T22:30:17.364Z,99760.63
2023-01-08T22:33:18.792Z,99759.97
2023-01-08T22:36:20.396Z,99760.69
2023-01-08T22:39:21.867Z,99756.56
2023-01-08T22:42:23.975Z,99745.50
2023-01-08T22:45:25.454Z,99750.69
2023-01-08T22:48:27.502Z,99744.81
2023-01-08T22:51:29.133Z,99743.34
2023-01-08T22:54:30.505Z,99740.13
2023-01-08T22:57:32.145Z,99732.56
2023-01-08T23:00:33.525Z,99736.72
2023-01-08T23:03:34.937Z,99742.66
2023-01-08T23:06:36.292Z,99735.13
2023-01-08T23:09:37.662Z,99735.97
2023-01-08T23:12:39.036Z,99743.63
2023-01-08T23:15:40.405Z,99735.00
2023-01-08T23:18:42.399Z,99735.75
2023-01-08T23:21:43.760Z,99731.53
2023-01-08T23:24:45.105Z,99730.63
2023-01-08T23:27:46.467Z,99724.63
2023-01-08T23:30:47.818Z,99720.41
2023-01-08T23:33:49.270Z,99720.41
2023-01-08T23:36:51.034Z,99712.00
2023-01-08T23:39:52.397Z,99712.00
2023-01-08T23:42:53.798Z,99705.22
2023-01-08T23:45:55.216Z,99700.94
2023-01-08T23:48:56.583Z,99698.44
2023-01-08T23:51:57.967Z,99679.75
2023-01-08T23:54:59.286Z,99673.78
2023-01-08T23:58:01.061Z,99658.38
